Terminal Aerodrome Forecast
Issued by NWS

Home | Current Version | Previous Version | Text Only | Print | Product List | Glossary On
Versions: 1 2 3 4 5 6 7 8 9 10 11 12 13 14 15 16 17 18 19 20 21 22 23
000
FTUS45 KBOU 191122
TAFBJC
TAF
KBJC 191122Z 1912/2012 05006KT P6SM FEW220
     FM191800 08010KT P6SM BKN220
     FM192200 10012G18KT P6SM SCT120 BKN220
     FM201000 03012KT P6SM BKN120=

USA.gov is the U.S. government's official web portal to all federal, state and local government web resources and services.